createdAt,value
2022-12-26T00:02:05.755Z,29.43
2022-12-26T00:04:48.538Z,30.23
2022-12-26T00:07:20.265Z,27.97
2022-12-26T00:09:50.105Z,28.00
2022-12-26T00:12:19.794Z,30.93
2022-12-26T00:14:49.560Z,31.87
2022-12-26T00:17:21.856Z,33.10
2022-12-26T00:19:51.612Z,30.43
2022-12-26T00:22:21.479Z,28.57
2022-12-26T00:24:51.621Z,30.17
2022-12-26T00:27:21.342Z,36.27
2022-12-26T00:29:51.084Z,30.70
2022-12-26T00:32:23.435Z,33.37
2022-12-26T00:34:53.141Z,28.27
2022-12-26T00:37:22.852Z,32.60
2022-12-26T00:39:52.603Z,32.13
2022-12-26T00:42:22.305Z,31.63
2022-12-26T00:44:52.013Z,26.77
2022-12-26T00:47:24.357Z,28.33
2022-12-26T00:50:11.433Z,26.10
2022-12-26T00:52:43.743Z,28.17
2022-12-26T00:55:13.719Z,25.63
2022-12-26T00:57:43.469Z,26.90
2022-12-26T01:00:14.741Z,26.90
2022-12-26T01:02:47.324Z,26.87
2022-12-26T01:05:17.194Z,28.67
2022-12-26T01:08:22.944Z,28.57
2022-12-26T01:10:36.651Z,28.93
2022-12-26T01:13:06.402Z,25.23
2022-12-26T01:15:36.112Z,24.30
2022-12-26T01:18:08.644Z,30.50
2022-12-26T01:20:38.377Z,30.90
2022-12-26T01:23:08.094Z,29.13
2022-12-26T01:25:37.841Z,25.60
2022-12-26T01:28:27.593Z,26.70
2022-12-26T01:30:57.330Z,25.20
2022-12-26T01:33:29.718Z,27.50
2022-12-26T01:35:59.677Z,28.33
2022-12-26T01:38:29.435Z,25.33
2022-12-26T01:41:11.407Z,25.67
2022-12-26T01:43:59.744Z,25.50
2022-12-26T01:46:33.885Z,26.23
2022-12-26T01:49:12.246Z,30.60
2022-12-26T01:51:46.510Z,28.43
2022-12-26T01:54:40.048Z,27.57
2022-12-26T01:57:12.811Z,30.03
2022-12-26T01:59:44.961Z,31.60
2022-12-26T02:02:15.034Z,29.43
2022-12-26T02:05:04.116Z,34.60
2022-12-26T02:07:35.314Z,34.43
2022-12-26T02:10:06.446Z,34.20
2022-12-26T02:12:39.207Z,31.30
2022-12-26T02:15:13.109Z,29.73
2022-12-26T02:17:45.630Z,26.77
2022-12-26T02:20:27.619Z,28.20
2022-12-26T02:23:37.917Z,21.50
2022-12-26T02:26:39.132Z,26.20
2022-12-26T02:29:42.534Z,25.00
2022-12-26T02:32:24.485Z,23.80
2022-12-26T02:35:04.579Z,28.07
2022-12-26T02:37:46.753Z,26.67
2022-12-26T02:40:36.062Z,20.43
2022-12-26T02:43:16.489Z,19.83
2022-12-26T02:46:06.131Z,19.87
2022-12-26T02:48:47.134Z,18.67
2022-12-26T02:51:41.463Z,23.87
2022-12-26T02:54:34.443Z,18.63
2022-12-26T02:57:20.809Z,22.30
2022-12-26T03:00:18.256Z,19.57
2022-12-26T03:03:06.202Z,19.70
2022-12-26T03:05:55.217Z,17.60
2022-12-26T03:08:43.422Z,18.77
2022-12-26T03:11:26.020Z,19.63
2022-12-26T03:13:57.651Z,15.87
2022-12-26T03:16:41.293Z,14.77
2022-12-26T03:19:15.117Z,19.03
2022-12-26T03:21:50.247Z,18.50
2022-12-26T03:24:20.809Z,19.10
2022-12-26T03:26:52.751Z,16.13
2022-12-26T03:29:36.719Z,20.30
2022-12-26T03:32:09.414Z,17.47
2022-12-26T03:34:41.911Z,19.50
2022-12-26T03:37:47.314Z,23.03
2022-12-26T03:40:48.105Z,22.07
2022-12-26T03:43:40.817Z,23.80
2022-12-26T03:46:33.288Z,22.47
2022-12-26T03:49:21.586Z,24.53
2022-12-26T03:52:14.267Z,24.13
2022-12-26T03:55:05.169Z,26.17
2022-12-26T03:57:55.135Z,25.80
2022-12-26T04:00:37.396Z,23.87
2022-12-26T04:03:25.503Z,29.00
2022-12-26T04:06:08.901Z,31.63
2022-12-26T04:09:00.731Z,30.57
2022-12-26T04:11:47.474Z,30.43
2022-12-26T04:14:43.475Z,30.60
2022-12-26T04:17:32.588Z,29.03
2022-12-26T04:20:10.919Z,27.63
2022-12-26T04:22:59.223Z,31.97
2022-12-26T04:25:50.251Z,34.17
2022-12-26T04:28:37.967Z,27.93
2022-12-26T04:31:25.713Z,28.27
2022-12-26T04:34:13.399Z,31.60
2022-12-26T04:36:59.479Z,25.73
2022-12-26T04:39:46.897Z,22.40
2022-12-26T04:42:30.175Z,23.10
2022-12-26T04:45:03.100Z,23.37
2022-12-26T04:47:34.573Z,26.07
2022-12-26T04:50:12.369Z,26.00
2022-12-26T04:52:54.835Z,24.73
2022-12-26T04:55:24.607Z,27.67
2022-12-26T04:57:54.384Z,25.77
2022-12-26T05:00:28.625Z,25.53
2022-12-26T05:03:16.393Z,25.57
2022-12-26T05:06:10.607Z,24.23
2022-12-26T05:08:55.026Z,24.03
2022-12-26T05:11:25.110Z,25.20
2022-12-26T05:13:56.007Z,24.00
2022-12-26T05:16:41.473Z,24.70
2022-12-26T05:19:26.443Z,23.43
2022-12-26T05:22:08.833Z,24.67
2022-12-26T05:24:54.870Z,20.43
2022-12-26T05:27:37.714Z,21.97
2022-12-26T05:30:09.252Z,21.47
2022-12-26T05:32:53.962Z,22.27
2022-12-26T05:35:23.725Z,23.30
2022-12-26T05:37:53.449Z,20.93
2022-12-26T05:40:23.171Z,21.83
2022-12-26T05:42:52.919Z,22.33
2022-12-26T05:45:23.073Z,27.07
2022-12-26T05:48:00.940Z,25.43
2022-12-26T05:50:30.702Z,22.93
2022-12-26T05:53:00.882Z,26.70
2022-12-26T05:55:30.662Z,25.77
2022-12-26T05:58:03.183Z,24.93
2022-12-26T06:00:33.047Z,24.57
2022-12-26T06:03:05.507Z,24.60
2022-12-26T06:05:35.560Z,26.13
2022-12-26T06:08:05.336Z,26.50
2022-12-26T06:10:35.044Z,24.47
2022-12-26T06:13:04.801Z,25.10
2022-12-26T06:15:34.551Z,22.30
2022-12-26T06:18:07.005Z,22.73
2022-12-26T06:20:36.745Z,24.33
2022-12-26T06:23:06.475Z,24.30
2022-12-26T06:25:36.349Z,24.10
2022-12-26T06:28:06.313Z,23.43
2022-12-26T06:30:36.054Z,25.20
2022-12-26T06:33:08.391Z,22.23
2022-12-26T06:35:38.138Z,25.47
2022-12-26T06:38:07.851Z,24.47
2022-12-26T06:40:37.606Z,25.17
2022-12-26T06:43:07.341Z,25.20
2022-12-26T06:45:37.130Z,20.47
2022-12-26T06:48:09.648Z,21.40
2022-12-26T06:50:39.628Z,23.00
2022-12-26T06:53:09.316Z,22.90
2022-12-26T06:55:39.006Z,20.27
2022-12-26T06:58:08.743Z,20.37
2022-12-26T07:00:38.489Z,19.73
2022-12-26T07:03:10.940Z,18.17
2022-12-26T07:05:42.488Z,22.87
2022-12-26T07:08:12.222Z,18.77
2022-12-26T07:10:41.945Z,18.43
2022-12-26T07:13:11.658Z,19.60
2022-12-26T07:15:41.374Z,17.13
2022-12-26T07:18:13.733Z,18.13
2022-12-26T07:20:43.459Z,18.20
2022-12-26T07:23:13.255Z,21.90
2022-12-26T07:25:43.061Z,21.00
2022-12-26T07:28:12.910Z,17.83
2022-12-26T07:30:42.630Z,16.23
2022-12-26T07:33:15.062Z,19.67
2022-12-26T07:35:44.827Z,16.83
2022-12-26T07:38:15.184Z,15.70
2022-12-26T07:40:44.975Z,16.97
2022-12-26T07:43:14.737Z,14.37
2022-12-26T07:45:46.021Z,15.20
2022-12-26T07:48:18.547Z,14.47
2022-12-26T07:50:49.844Z,16.00
2022-12-26T07:53:19.749Z,14.43
2022-12-26T07:55:49.804Z,12.80
2022-12-26T07:58:19.783Z,16.07
2022-12-26T08:00:49.615Z,13.23
2022-12-26T08:03:22.222Z,11.63
2022-12-26T08:05:54.325Z,11.70
2022-12-26T08:08:24.089Z,11.33
2022-12-26T08:11:02.232Z,12.30
2022-12-26T08:13:32.922Z,17.33
2022-12-26T08:16:02.846Z,11.27
2022-12-26T08:18:35.493Z,9.50
2022-12-26T08:21:05.332Z,11.43
2022-12-26T08:23:36.030Z,13.93
2022-12-26T08:26:09.616Z,13.00
2022-12-26T08:28:39.600Z,12.70
2022-12-26T08:31:10.421Z,11.07
2022-12-26T08:33:43.102Z,11.40
2022-12-26T08:36:17.064Z,9.47
2022-12-26T08:38:46.928Z,8.87
2022-12-26T08:41:17.634Z,11.07
2022-12-26T08:44:25.616Z,11.67
2022-12-26T08:46:40.165Z,12.30
2022-12-26T08:49:12.527Z,10.70
2022-12-26T08:51:42.688Z,9.10
2022-12-26T08:54:12.451Z,11.60
2022-12-26T08:56:42.437Z,8.63
2022-12-26T08:59:12.348Z,11.57
2022-12-26T09:01:43.134Z,11.83
2022-12-26T09:04:15.616Z,9.40
2022-12-26T09:06:45.338Z,10.07
2022-12-26T09:09:15.704Z,11.17
2022-12-26T09:11:45.684Z,10.00
2022-12-26T09:14:15.694Z,10.67
2022-12-26T09:16:50.847Z,10.30
2022-12-26T09:19:24.908Z,10.60
2022-12-26T09:22:15.988Z,8.23
2022-12-26T09:24:45.744Z,12.87
2022-12-26T09:27:15.490Z,10.97
2022-12-26T09:29:45.261Z,10.87
2022-12-26T09:32:14.970Z,11.60
2022-12-26T09:34:47.333Z,7.53
2022-12-26T09:37:17.030Z,10.90
2022-12-26T09:39:46.815Z,10.40
2022-12-26T09:42:26.642Z,14.40
2022-12-26T09:45:04.575Z,11.07
2022-12-26T09:47:36.410Z,11.53
2022-12-26T09:50:15.648Z,11.37
2022-12-26T09:52:51.558Z,12.97
2022-12-26T09:55:37.096Z,11.43
2022-12-26T09:58:14.889Z,12.57
2022-12-26T10:00:51.680Z,13.77
2022-12-26T10:03:21.488Z,10.93
2022-12-26T10:06:13.186Z,10.50
2022-12-26T10:09:02.365Z,16.13
2022-12-26T10:11:40.673Z,13.10
2022-12-26T10:14:21.834Z,14.00
2022-12-26T10:16:58.827Z,11.43
2022-12-26T10:19:42.664Z,11.47
2022-12-26T10:22:33.451Z,15.63
2022-12-26T10:25:05.932Z,11.50
2022-12-26T10:27:43.965Z,11.77
2022-12-26T10:30:21.032Z,11.20
2022-12-26T10:32:55.383Z,12.33
2022-12-26T10:35:31.876Z,10.20
2022-12-26T10:38:09.473Z,11.20
2022-12-26T10:40:43.486Z,16.87
2022-12-26T10:43:26.876Z,12.17
2022-12-26T10:46:11.659Z,10.20
2022-12-26T10:48:41.537Z,11.73
2022-12-26T10:51:13.091Z,10.80
2022-12-26T10:53:50.552Z,8.57
2022-12-26T10:56:20.898Z,8.63
2022-12-26T10:59:01.436Z,8.27
2022-12-26T11:01:36.955Z,12.57
2022-12-26T11:04:09.013Z,12.17
2022-12-26T11:06:42.134Z,8.60
2022-12-26T11:09:27.806Z,10.33
2022-12-26T11:11:57.585Z,10.63
2022-12-26T11:14:34.725Z,8.20
2022-12-26T11:17:07.833Z,10.43
2022-12-26T11:19:40.136Z,7.43
2022-12-26T11:22:33.795Z,6.77
2022-12-26T11:25:16.556Z,6.17
2022-12-26T11:27:47.996Z,6.47
2022-12-26T11:30:29.244Z,7.07
2022-12-26T11:33:16.176Z,6.43
2022-12-26T11:35:51.637Z,13.93
2022-12-26T11:38:42.469Z,9.23
2022-12-26T11:41:39.203Z,8.37
2022-12-26T11:44:19.510Z,9.67
2022-12-26T11:46:53.123Z,8.23
2022-12-26T11:49:30.217Z,11.73
2022-12-26T11:52:01.322Z,14.37
2022-12-26T11:54:40.078Z,11.87
2022-12-26T11:57:22.332Z,11.60
2022-12-26T11:59:54.574Z,8.00
2022-12-26T12:02:32.863Z,9.67
2022-12-26T12:05:05.540Z,9.77
2022-12-26T12:08:09.779Z,12.23
2022-12-26T12:11:02.727Z,12.40
2022-12-26T12:13:48.563Z,16.07
2022-12-26T12:16:34.894Z,13.37
2022-12-26T12:19:17.424Z,12.40
2022-12-26T12:21:49.547Z,10.97
2022-12-26T12:24:32.861Z,13.73
2022-12-26T12:27:12.281Z,10.87
2022-12-26T12:30:04.121Z,19.73
2022-12-26T12:32:44.017Z,9.50
2022-12-26T12:35:37.057Z,10.33
2022-12-26T12:38:24.770Z,10.50
2022-12-26T12:41:04.304Z,10.40
2022-12-26T12:43:43.361Z,12.73
2022-12-26T12:46:25.852Z,13.17
2022-12-26T12:49:06.768Z,13.40
2022-12-26T12:51:45.693Z,13.80
2022-12-26T12:55:03.561Z,12.37
2022-12-26T12:57:43.996Z,11.07
2022-12-26T13:00:19.644Z,13.50
2022-12-26T13:02:58.357Z,11.07
2022-12-26T13:05:47.330Z,12.57
2022-12-26T13:08:23.958Z,12.67
2022-12-26T13:10:57.984Z,9.30
2022-12-26T13:13:33.379Z,15.47
2022-12-26T13:16:08.997Z,13.07
2022-12-26T13:18:48.425Z,11.80
2022-12-26T13:21:19.700Z,8.30
2022-12-26T13:24:05.112Z,10.60
2022-12-26T13:26:39.191Z,11.80
2022-12-26T13:29:16.167Z,12.30
2022-12-26T13:31:47.527Z,10.33
2022-12-26T13:34:22.846Z,7.63
2022-12-26T13:36:54.843Z,16.33
2022-12-26T13:39:40.845Z,10.47
2022-12-26T13:42:39.270Z,15.93
2022-12-26T13:45:39.018Z,10.80
2022-12-26T13:48:57.753Z,7.27
2022-12-26T13:51:55.608Z,7.93
2022-12-26T13:54:27.970Z,8.67
2022-12-26T13:57:30.077Z,10.57
2022-12-26T14:00:08.993Z,15.53
2022-12-26T14:03:19.802Z,12.43
2022-12-26T14:06:15.264Z,9.53
2022-12-26T14:09:07.457Z,9.33
2022-12-26T14:12:00.782Z,12.53
2022-12-26T14:14:40.950Z,10.30
2022-12-26T14:17:21.919Z,10.20
2022-12-26T14:20:05.772Z,13.23
2022-12-26T14:22:45.613Z,6.50
2022-12-26T14:25:26.099Z,8.93
2022-12-26T14:28:02.399Z,13.97
2022-12-26T14:30:37.960Z,6.50
2022-12-26T14:33:23.762Z,9.87
2022-12-26T14:36:05.666Z,9.60
2022-12-26T14:38:48.563Z,18.27
2022-12-26T14:41:34.972Z,12.23
2022-12-26T14:44:20.098Z,15.37
2022-12-26T14:47:04.994Z,9.17
2022-12-26T14:49:44.361Z,8.70
2022-12-26T14:52:49.955Z,8.77
2022-12-26T14:55:49.715Z,8.30
2022-12-26T14:58:31.487Z,8.63
2022-12-26T15:01:36.493Z,6.47
2022-12-26T15:04:10.268Z,8.70
2022-12-26T15:07:01.178Z,10.20
2022-12-26T15:10:01.397Z,10.53
2022-12-26T15:13:10.662Z,9.90
2022-12-26T15:16:01.222Z,12.83
2022-12-26T15:18:58.731Z,5.37
2022-12-26T15:21:59.768Z,9.63
2022-12-26T15:25:18.593Z,5.47
2022-12-26T15:28:17.474Z,9.73
2022-12-26T15:31:19.975Z,10.37
2022-12-26T15:33:55.804Z,8.10
2022-12-26T15:36:33.501Z,10.67
2022-12-26T15:39:08.618Z,9.27
2022-12-26T15:41:46.616Z,7.20
2022-12-26T15:44:26.527Z,9.07
2022-12-26T15:47:13.471Z,8.53
2022-12-26T15:49:56.839Z,9.00
2022-12-26T15:52:40.971Z,10.17
2022-12-26T15:55:38.334Z,9.83
2022-12-26T15:58:19.259Z,10.23
2022-12-26T16:00:52.880Z,6.90
2022-12-26T16:03:33.781Z,10.37
2022-12-26T16:06:20.474Z,10.87
2022-12-26T16:09:09.665Z,8.83
2022-12-26T16:11:55.583Z,8.03
2022-12-26T16:14:31.923Z,8.07
2022-12-26T16:17:22.699Z,7.03
2022-12-26T16:19:55.743Z,10.60
2022-12-26T16:22:45.982Z,7.40
2022-12-26T16:25:19.890Z,7.47
2022-12-26T16:27:52.781Z,9.07
2022-12-26T16:30:26.070Z,5.03
2022-12-26T16:32:56.940Z,5.80
2022-12-26T16:35:32.369Z,7.40
2022-12-26T16:38:05.055Z,13.47
2022-12-26T16:40:36.551Z,9.67
2022-12-26T16:43:08.564Z,11.23
2022-12-26T16:45:40.670Z,9.97
2022-12-26T16:48:12.233Z,18.03
2022-12-26T16:50:53.013Z,11.57
2022-12-26T16:53:25.181Z,8.57
2022-12-26T16:56:01.094Z,8.23
2022-12-26T16:58:34.253Z,9.57
2022-12-26T17:01:11.096Z,7.03
2022-12-26T17:03:54.250Z,11.20
2022-12-26T17:06:31.329Z,6.93
2022-12-26T17:09:08.253Z,8.67
2022-12-26T17:11:40.457Z,9.87
2022-12-26T17:14:20.626Z,8.60
2022-12-26T17:16:50.411Z,6.20
2022-12-26T17:19:22.059Z,12.57
2022-12-26T17:22:23.366Z,11.90
2022-12-26T17:24:54.760Z,7.87
2022-12-26T17:27:27.252Z,8.07
2022-12-26T17:30:00.721Z,6.83
2022-12-26T17:32:36.217Z,9.53
2022-12-26T17:35:09.471Z,12.47
2022-12-26T17:37:42.449Z,10.53
2022-12-26T17:40:26.627Z,12.17
2022-12-26T17:42:58.435Z,7.40
2022-12-26T17:45:29.734Z,10.47
2022-12-26T17:48:00.587Z,13.60
2022-12-26T17:50:34.527Z,7.23
2022-12-26T17:53:21.860Z,6.57
2022-12-26T17:55:52.280Z,9.87
2022-12-26T17:58:22.024Z,10.63
2022-12-26T18:00:53.074Z,8.73
2022-12-26T18:03:22.871Z,8.47
2022-12-26T18:05:52.608Z,7.47
2022-12-26T18:08:30.100Z,8.90
2022-12-26T18:11:00.874Z,10.33
2022-12-26T18:13:31.212Z,7.07
2022-12-26T18:16:02.011Z,10.40
2022-12-26T18:18:35.189Z,9.33
2022-12-26T18:21:06.233Z,10.47
2022-12-26T18:23:39.091Z,10.67
2022-12-26T18:26:11.659Z,8.20
2022-12-26T18:28:41.383Z,7.87
2022-12-26T18:31:12.490Z,9.67
2022-12-26T18:33:42.235Z,11.67
2022-12-26T18:36:14.296Z,10.93
2022-12-26T18:38:47.497Z,44.50
2022-12-26T18:41:18.203Z,14.40
2022-12-26T18:43:47.996Z,12.53
2022-12-26T18:46:20.309Z,11.97
2022-12-26T18:48:51.111Z,7.77
2022-12-26T18:51:20.854Z,10.07
2022-12-26T18:53:53.259Z,9.10
2022-12-26T18:56:26.312Z,24.13
2022-12-26T18:58:58.167Z,6.97
2022-12-26T19:01:28.813Z,7.73
2022-12-26T19:03:58.746Z,7.90
2022-12-26T19:06:30.429Z,8.97
2022-12-26T19:09:02.816Z,11.50
2022-12-26T19:11:32.543Z,5.97
2022-12-26T19:14:02.997Z,6.77
2022-12-26T19:16:32.777Z,6.87
2022-12-26T19:19:03.075Z,9.77
2022-12-26T19:21:32.989Z,8.07
2022-12-26T19:24:05.385Z,6.77
2022-12-26T19:26:35.148Z,5.03
2022-12-26T19:29:05.083Z,8.40
2022-12-26T19:31:35.140Z,7.17
2022-12-26T19:34:04.951Z,8.43
2022-12-26T19:36:34.698Z,8.60
2022-12-26T19:39:07.284Z,7.20
2022-12-26T19:41:37.083Z,6.47
2022-12-26T19:44:06.880Z,5.37
2022-12-26T19:46:36.638Z,8.20
2022-12-26T19:49:06.704Z,9.80
2022-12-26T19:51:36.497Z,11.83
2022-12-26T19:54:08.908Z,5.63
2022-12-26T19:56:38.694Z,8.37
2022-12-26T19:59:08.518Z,11.47
2022-12-26T20:01:38.339Z,8.27
2022-12-26T20:04:09.787Z,9.73
2022-12-26T20:06:42.426Z,8.97
2022-12-26T20:09:17.247Z,8.30
2022-12-26T20:11:49.437Z,8.67
2022-12-26T20:14:21.495Z,8.20
2022-12-26T20:17:08.906Z,8.83
2022-12-26T20:19:39.747Z,9.27
2022-12-26T20:22:11.572Z,7.07
2022-12-26T20:24:43.940Z,7.03
2022-12-26T20:27:13.788Z,10.63
2022-12-26T20:29:43.514Z,8.90
2022-12-26T20:32:13.390Z,7.47
2022-12-26T20:34:43.196Z,9.47
2022-12-26T20:37:12.996Z,9.60
2022-12-26T20:39:45.307Z,9.90
2022-12-26T20:42:17.107Z,7.10
2022-12-26T20:44:46.921Z,7.50
2022-12-26T20:47:17.599Z,8.43
2022-12-26T20:49:47.381Z,6.47
2022-12-26T20:52:18.607Z,5.13
2022-12-26T20:54:50.926Z,6.80
2022-12-26T20:57:20.709Z,6.73
2022-12-26T20:59:50.635Z,4.77
2022-12-26T21:02:20.499Z,5.73
2022-12-26T21:04:51.123Z,5.43
2022-12-26T21:07:20.840Z,8.27
2022-12-26T21:09:53.183Z,9.00
2022-12-26T21:12:23.398Z,6.00
2022-12-26T21:14:53.283Z,4.50
2022-12-26T21:17:23.053Z,8.13
2022-12-26T21:19:52.777Z,7.50
2022-12-26T21:22:23.671Z,4.87
2022-12-26T21:24:55.979Z,4.30
2022-12-26T21:27:25.701Z,6.33
2022-12-26T21:29:55.429Z,5.43
2022-12-26T21:32:25.168Z,6.07
2022-12-26T21:34:54.935Z,5.83
2022-12-26T21:37:37.058Z,6.20
2022-12-26T21:40:10.787Z,5.20
2022-12-26T21:42:40.537Z,4.43
2022-12-26T21:45:11.846Z,6.07
2022-12-26T21:47:41.660Z,8.50
2022-12-26T21:50:12.320Z,8.50
2022-12-26T21:52:42.149Z,6.23
2022-12-26T21:55:31.294Z,9.93
2022-12-26T21:58:04.118Z,6.90
2022-12-26T22:00:35.438Z,6.53
2022-12-26T22:03:18.029Z,7.37
2022-12-26T22:05:47.824Z,3.53
2022-12-26T22:08:17.523Z,5.87
2022-12-26T22:11:14.547Z,4.47
2022-12-26T22:13:47.174Z,5.80
2022-12-26T22:16:16.912Z,7.07
2022-12-26T22:18:48.903Z,8.00
2022-12-26T22:21:20.181Z,6.87
2022-12-26T22:23:52.436Z,5.60
2022-12-26T22:26:26.018Z,6.60
2022-12-26T22:28:55.798Z,8.53
2022-12-26T22:31:28.973Z,7.00
2022-12-26T22:33:59.775Z,9.13
2022-12-26T22:36:30.564Z,5.43
2022-12-26T22:39:01.469Z,8.27
2022-12-26T22:41:35.166Z,6.10
2022-12-26T22:44:05.046Z,6.60
2022-12-26T22:46:34.885Z,7.70
2022-12-26T22:49:04.625Z,10.33
2022-12-26T22:51:34.375Z,7.10
2022-12-26T22:54:04.987Z,9.70
2022-12-26T22:56:37.348Z,6.13
2022-12-26T22:59:07.082Z,7.33
2022-12-26T23:01:36.879Z,7.00
2022-12-26T23:04:07.530Z,8.43
2022-12-26T23:06:39.977Z,8.23
2022-12-26T23:09:16.564Z,6.03
2022-12-26T23:12:09.521Z,4.17
2022-12-26T23:14:39.838Z,5.97
2022-12-26T23:17:33.476Z,3.67
2022-12-26T23:20:16.994Z,3.67
2022-12-26T23:22:47.382Z,5.83
2022-12-26T23:25:17.322Z,6.83
2022-12-26T23:28:02.110Z,7.97
2022-12-26T23:30:33.589Z,6.07
2022-12-26T23:33:03.331Z,8.17
2022-12-26T23:35:33.087Z,5.73
2022-12-26T23:38:02.815Z,8.83
2022-12-26T23:40:32.567Z,7.43
2022-12-26T23:43:04.884Z,5.67
2022-12-26T23:45:34.613Z,6.13
2022-12-26T23:48:04.359Z,10.13
2022-12-26T23:50:34.083Z,6.70
2022-12-26T23:53:03.827Z,7.43
2022-12-26T23:55:33.548Z,5.87
2022-12-26T23:58:05.922Z,9.43
